createdAt,value
2023-01-13T00:00:55.918Z,101770.41
2023-01-13T00:06:00.069Z,101766.44
2023-01-13T00:11:02.926Z,101741.44
2023-01-13T00:16:06.520Z,101749.09
2023-01-13T00:21:13.594Z,101705.84
2023-01-13T00:26:19.591Z,101735.78
2023-01-13T00:31:22.436Z,101729.06
2023-01-13T00:36:25.472Z,101739.94
2023-01-13T00:41:28.194Z,101732.84
2023-01-13T00:46:30.742Z,101741.81
2023-01-13T00:51:33.453Z,101740.19
2023-01-13T00:56:40.803Z,101739.34
2023-01-13T01:01:44.328Z,101738.06
2023-01-13T01:06:47.315Z,101727.84
2023-01-13T01:11:50.033Z,101735.19
2023-01-13T01:16:52.763Z,101734.78
2023-01-13T01:21:55.548Z,101737.72
2023-01-13T01:26:58.319Z,101711.66
2023-01-13T01:32:00.992Z,101721.31
2023-01-13T01:37:03.733Z,101721.94
2023-01-13T01:42:24.854Z,101723.56
2023-01-13T01:47:28.854Z,101717.06
2023-01-13T01:52:35.985Z,101717.78
2023-01-13T01:57:50.883Z,101722.69
2023-01-13T02:02:53.801Z,101701.97
2023-01-13T02:07:58.562Z,101726.00
2023-01-13T02:13:03.959Z,101724.50
2023-01-13T02:18:22.016Z,101723.84
2023-01-13T02:23:52.365Z,101716.06
2023-01-13T02:29:34.822Z,101728.13
2023-01-13T02:34:42.491Z,101726.56
2023-01-13T02:40:26.667Z,101712.81
2023-01-13T02:45:34.674Z,101704.34
2023-01-13T02:50:41.739Z,101728.41
2023-01-13T02:55:50.811Z,101718.88
2023-01-13T03:00:53.881Z,101711.09
2023-01-13T03:06:09.466Z,101715.56
2023-01-13T03:11:13.776Z,101716.00
2023-01-13T03:16:22.527Z,101699.09
2023-01-13T03:21:51.786Z,101695.09
2023-01-13T03:27:04.735Z,101692.44
2023-01-13T03:32:10.139Z,101712.03
2023-01-13T03:37:14.867Z,101698.63
2023-01-13T03:42:24.321Z,101715.78
2023-01-13T03:47:44.373Z,101710.22
2023-01-13T03:53:13.768Z,101706.44
2023-01-13T03:58:46.340Z,101706.69
2023-01-13T04:03:55.299Z,101702.63
2023-01-13T04:09:36.700Z,101696.41
2023-01-13T04:14:39.737Z,101688.81
2023-01-13T04:19:42.459Z,101708.66
2023-01-13T04:24:45.271Z,101696.16
2023-01-13T04:29:48.064Z,101692.34
2023-01-13T04:34:50.924Z,101696.31
2023-01-13T04:39:53.576Z,101696.22
2023-01-13T04:44:57.013Z,101696.84
2023-01-13T04:50:00.126Z,101698.75
2023-01-13T04:55:02.856Z,101659.44
2023-01-13T05:00:07.658Z,101689.25
2023-01-13T05:05:10.909Z,101684.06
2023-01-13T05:10:13.924Z,101670.72
2023-01-13T05:15:35.125Z,101685.81
2023-01-13T05:20:38.044Z,101676.88
2023-01-13T05:25:44.193Z,101688.19
2023-01-13T05:30:49.682Z,101684.31
2023-01-13T05:35:52.886Z,101675.66
2023-01-13T05:41:14.125Z,101688.34
2023-01-13T05:46:18.022Z,101692.94
2023-01-13T05:51:26.501Z,101691.63
2023-01-13T05:56:29.414Z,101697.53
2023-01-13T06:01:32.082Z,101692.00
2023-01-13T06:06:34.963Z,101692.34
2023-01-13T06:11:37.595Z,101698.28
2023-01-13T06:16:40.828Z,101696.25
2023-01-13T06:21:46.544Z,101698.03
2023-01-13T06:26:49.217Z,101687.59
2023-01-13T06:31:51.929Z,101700.78
2023-01-13T06:36:55.655Z,101685.66
2023-01-13T06:42:16.790Z,101688.94
2023-01-13T06:47:19.611Z,101685.47
2023-01-13T06:52:23.855Z,101686.84
2023-01-13T06:57:26.785Z,101689.56
2023-01-13T07:02:29.472Z,101695.06
2023-01-13T07:07:33.124Z,101697.53
2023-01-13T07:12:56.560Z,101696.22
2023-01-13T07:17:59.990Z,101663.06
2023-01-13T07:23:02.520Z,101710.56
2023-01-13T07:28:05.238Z,101709.34
2023-01-13T07:33:07.976Z,101702.31
2023-01-13T07:38:10.742Z,101703.59
2023-01-13T07:43:32.221Z,101710.78
2023-01-13T07:48:35.560Z,101710.13
2023-01-13T07:53:38.802Z,101729.16
2023-01-13T07:58:41.842Z,101726.22
2023-01-13T08:03:44.808Z,101731.28
2023-01-13T08:08:47.451Z,101732.81
2023-01-13T08:13:50.196Z,101735.69
2023-01-13T08:18:52.901Z,101746.75
2023-01-13T08:23:55.600Z,101762.47
2023-01-13T08:28:58.288Z,101765.28
2023-01-13T08:34:00.964Z,101766.84
2023-01-13T08:39:04.199Z,101770.84
2023-01-13T08:44:09.440Z,101780.72
2023-01-13T08:49:12.166Z,101805.16
2023-01-13T08:54:14.975Z,101792.50
2023-01-13T08:59:19.283Z,101802.19
2023-01-13T09:04:24.051Z,101797.31
2023-01-13T09:09:28.165Z,101797.09
2023-01-13T09:14:33.069Z,101811.19
2023-01-13T09:19:36.019Z,101800.72
2023-01-13T09:24:38.730Z,101809.47
2023-01-13T09:29:41.947Z,101798.81
2023-01-13T09:35:03.159Z,101805.59
2023-01-13T09:40:15.942Z,101828.59
2023-01-13T09:45:23.320Z,101833.75
2023-01-13T09:50:44.050Z,101833.97
2023-01-13T09:55:47.253Z,101818.59
2023-01-13T10:00:55.771Z,101850.06
2023-01-13T10:06:12.941Z,101860.13
2023-01-13T10:11:39.238Z,101867.53
2023-01-13T10:16:46.938Z,101873.59
2023-01-13T10:22:15.687Z,101875.13
2023-01-13T10:27:27.112Z,101886.06
2023-01-13T10:32:29.801Z,101876.94
2023-01-13T10:37:32.593Z,101886.50
2023-01-13T10:42:35.301Z,101884.97
2023-01-13T10:47:38.184Z,101894.75
2023-01-13T10:52:55.054Z,101891.19
2023-01-13T10:57:57.852Z,101876.25
2023-01-13T11:03:22.065Z,101892.75
2023-01-13T11:08:46.054Z,101909.53
2023-01-13T11:14:09.284Z,101925.34
2023-01-13T11:19:16.541Z,101909.75
2023-01-13T11:24:43.443Z,101919.34
2023-01-13T11:30:04.572Z,101927.59
2023-01-13T11:35:18.688Z,101924.00
2023-01-13T11:40:43.505Z,101924.25
2023-01-13T11:45:51.469Z,101920.00
2023-01-13T11:51:06.299Z,101927.16
2023-01-13T11:56:28.128Z,101930.28
2023-01-13T12:01:39.929Z,101943.91
2023-01-13T12:06:43.939Z,101939.44
2023-01-13T12:12:23.705Z,101949.69
2023-01-13T12:17:44.023Z,101953.50
2023-01-13T12:22:48.664Z,101951.28
2023-01-13T12:28:04.067Z,101957.31
2023-01-13T12:33:42.021Z,101953.72
2023-01-13T12:39:05.005Z,101960.44
2023-01-13T12:44:20.781Z,101959.53
2023-01-13T12:49:30.352Z,101961.75
2023-01-13T12:54:42.803Z,101966.25
2023-01-13T12:59:49.414Z,101960.22
2023-01-13T13:04:56.432Z,101961.75
2023-01-13T13:10:03.109Z,101956.66
2023-01-13T13:15:20.691Z,101960.66
2023-01-13T13:20:57.487Z,101968.91
2023-01-13T13:26:24.234Z,101964.00
2023-01-13T13:31:45.183Z,101965.78
2023-01-13T13:38:00.218Z,101966.69
2023-01-13T13:43:22.675Z,101976.06
2023-01-13T13:48:31.091Z,101947.25
2023-01-13T13:53:35.955Z,101982.97
2023-01-13T13:58:38.726Z,101993.91
2023-01-13T14:03:41.524Z,101984.53
2023-01-13T14:08:50.307Z,101970.47
2023-01-13T14:14:07.090Z,101990.38
2023-01-13T14:19:44.535Z,101993.94
2023-01-13T14:24:49.690Z,101997.94
2023-01-13T14:29:56.896Z,102008.00
2023-01-13T14:35:00.030Z,102005.09
2023-01-13T14:40:03.016Z,102019.59
2023-01-13T14:45:23.568Z,102026.53
2023-01-13T14:50:31.755Z,102033.22
2023-01-13T14:55:40.855Z,102023.63
2023-01-13T15:00:43.647Z,102040.84
2023-01-13T15:05:48.650Z,102013.81
2023-01-13T15:11:00.239Z,102024.28
2023-01-13T15:16:07.926Z,102040.38
2023-01-13T15:21:11.137Z,102030.09
2023-01-13T15:26:20.564Z,102016.47
2023-01-13T15:31:24.337Z,102017.38
2023-01-13T15:36:31.891Z,102035.91
2023-01-13T15:41:53.285Z,102031.44
2023-01-13T15:46:56.225Z,102018.28
2023-01-13T15:51:58.976Z,102028.09
2023-01-13T15:57:01.740Z,102015.38
2023-01-13T16:02:04.482Z,102018.03
2023-01-13T16:07:14.583Z,102016.03
2023-01-13T16:12:17.467Z,102030.31
2023-01-13T16:17:24.211Z,102024.75
2023-01-13T16:22:27.124Z,102019.16
2023-01-13T16:27:29.804Z,102033.91
2023-01-13T16:32:32.518Z,102029.00
2023-01-13T16:37:35.253Z,102046.44
2023-01-13T16:42:38.188Z,102049.09
2023-01-13T16:47:41.164Z,102048.44
2023-01-13T16:52:43.896Z,102029.66
2023-01-13T16:57:46.667Z,102050.41
2023-01-13T17:02:49.560Z,102056.47
2023-01-13T17:07:52.337Z,102053.81
2023-01-13T17:12:56.041Z,102071.69
2023-01-13T17:18:00.351Z,102056.69
2023-01-13T17:23:03.026Z,102077.03
2023-01-13T17:28:05.764Z,102072.13
2023-01-13T17:33:08.470Z,102064.50
2023-01-13T17:38:11.364Z,102064.97
2023-01-13T17:43:14.053Z,102061.84
2023-01-13T17:48:16.792Z,102065.63
2023-01-13T17:53:20.262Z,102056.03
2023-01-13T17:58:22.885Z,102073.22
2023-01-13T18:03:25.718Z,102071.00
2023-01-13T18:08:28.722Z,102082.38
2023-01-13T18:13:33.386Z,102077.03
2023-01-13T18:18:36.064Z,102093.34
2023-01-13T18:24:11.107Z,102073.91
2023-01-13T18:29:13.784Z,102083.06
2023-01-13T18:34:16.572Z,102077.47
2023-01-13T18:39:19.282Z,102076.13
2023-01-13T18:44:22.124Z,102063.63
2023-01-13T18:49:24.840Z,102057.81
2023-01-13T18:54:27.741Z,102051.34
2023-01-13T18:59:31.496Z,102083.28
2023-01-13T19:04:36.093Z,102092.00
2023-01-13T19:09:39.849Z,102069.88
2023-01-13T19:14:44.482Z,102079.94
2023-01-13T19:19:51.089Z,102095.13
2023-01-13T19:24:53.983Z,102090.44
2023-01-13T19:30:02.335Z,102101.59
2023-01-13T19:35:07.612Z,102087.50
2023-01-13T19:40:14.241Z,102097.13
2023-01-13T19:45:32.426Z,102095.34
2023-01-13T19:50:40.032Z,102075.69
2023-01-13T19:55:49.662Z,102088.19
2023-01-13T20:00:56.086Z,102076.38
2023-01-13T20:06:06.430Z,102105.84
2023-01-13T20:11:23.300Z,102099.59
2023-01-13T20:16:26.943Z,102090.44
2023-01-13T20:21:29.613Z,102065.88
2023-01-13T20:26:32.690Z,102071.91
2023-01-13T20:31:35.403Z,102063.19
2023-01-13T20:36:39.283Z,102058.50
2023-01-13T20:42:14.724Z,102058.28
2023-01-13T20:47:17.360Z,102068.56
2023-01-13T20:52:20.715Z,102071.00
2023-01-13T20:57:23.412Z,102058.69
2023-01-13T21:02:26.040Z,102071.22
2023-01-13T21:07:28.830Z,102056.00
2023-01-13T21:12:50.336Z,102044.41
2023-01-13T21:18:11.562Z,102047.53
2023-01-13T21:23:14.174Z,102050.88
2023-01-13T21:28:18.216Z,102049.75
2023-01-13T21:33:22.004Z,102047.97
2023-01-13T21:38:27.074Z,102049.75
2023-01-13T21:43:48.504Z,102036.59
2023-01-13T21:48:51.121Z,102047.75
2023-01-13T21:53:54.577Z,102046.16
2023-01-13T21:58:57.133Z,102038.34
2023-01-13T22:04:14.792Z,102035.00
2023-01-13T22:09:17.702Z,102030.31
2023-01-13T22:14:20.403Z,102022.06
2023-01-13T22:19:24.480Z,102013.75
2023-01-13T22:24:27.216Z,102006.38
2023-01-13T22:29:29.821Z,102005.03
2023-01-13T22:34:32.844Z,101984.94
2023-01-13T22:39:35.614Z,101983.13
2023-01-13T22:44:38.638Z,101974.84
2023-01-13T22:49:42.434Z,101973.03
2023-01-13T22:54:45.207Z,101956.03
2023-01-13T22:59:48.045Z,101941.75
2023-01-13T23:04:51.064Z,101951.13
2023-01-13T23:09:53.729Z,101951.72
2023-01-13T23:14:56.603Z,101950.44
2023-01-13T23:19:59.272Z,101927.22
2023-01-13T23:25:02.034Z,101931.19
2023-01-13T23:30:08.276Z,101940.97
2023-01-13T23:35:11.281Z,101927.13
2023-01-13T23:40:14.327Z,101939.38
2023-01-13T23:45:17.129Z,101938.47
2023-01-13T23:50:19.891Z,101951.66
2023-01-13T23:55:22.815Z,101938.00
